Time;durP1;ratioP1;P1;durP2;ratioP2;P2;SDS_P1;SDS_P2;PMS_P1;PMS_P2;Temp;Humidity;BMP_temperature;BMP_pressure;BME280_temperature;BME280_humidity;BME280_pressure;Samples;Min_cycle;Max_cycle;Signal;HPM_P1;HPM_P2
2023/03/15 00:02:18;;;;;;;3.92;1.80;;;3.20;1.00;;;;;;5059253;28;20036;-77
2023/03/15 00:04:47;;;;;;;2.42;1.13;;;3.20;1.00;;;;;;5063964;28;20047;-77
2023/03/15 00:07:13;;;;;;;4.90;1.25;;;3.20;1.00;;;;;;5059776;28;20033;-76
2023/03/15 00:09:39;;;;;;;1.92;0.77;;;3.20;1.00;;;;;;5063973;28;20025;-77
2023/03/15 00:12:06;;;;;;;8.43;1.13;;;3.10;1.00;;;;;;5058349;28;20442;-77
2023/03/15 00:14:32;;;;;;;3.95;1.20;;;3.10;1.00;;;;;;5063048;28;20064;-77
2023/03/15 00:16:58;;;;;;;6.05;1.33;;;3.00;1.00;;;;;;5062691;28;20040;-77
2023/03/15 00:19:24;;;;;;;3.83;1.50;;;3.00;1.00;;;;;;5076518;28;20047;-77
2023/03/15 00:21:50;;;;;;;2.15;0.98;;;3.10;1.00;;;;;;5077116;28;20040;-77
2023/03/15 00:24:17;;;;;;;6.72;1.55;;;3.00;1.00;;;;;;5076251;28;20040;-77
2023/03/15 00:26:43;;;;;;;3.78;1.00;;;3.00;1.00;;;;;;5053061;28;20030;-77
2023/03/15 00:29:09;;;;;;;5.10;1.80;;;2.90;1.00;;;;;;5054560;28;20048;-77
2023/03/15 00:31:35;;;;;;;4.50;0.90;;;2.80;1.00;;;;;;5063648;28;20063;-77
2023/03/15 00:34:02;;;;;;;4.65;1.05;;;2.90;1.00;;;;;;5062898;28;20385;-80
2023/03/15 00:36:28;;;;;;;4.45;2.20;;;2.80;1.00;;;;;;5053291;28;20040;-76
2023/03/15 00:38:55;;;;;;;4.38;1.17;;;2.90;1.00;;;;;;5061811;28;20041;-77
2023/03/15 00:41:23;;;;;;;3.20;0.88;;;2.80;1.00;;;;;;5053759;28;20450;-78
2023/03/15 00:43:50;;;;;;;5.35;1.83;;;2.80;1.00;;;;;;5061109;28;20056;-76
2023/03/15 00:46:17;;;;;;;6.32;1.20;;;2.80;1.00;;;;;;5056092;28;20053;-76
2023/03/15 00:48:47;;;;;;;3.65;1.65;;;2.70;1.00;;;;;;5061928;28;20036;-77
2023/03/15 00:51:15;;;;;;;2.35;0.65;;;2.80;1.00;;;;;;5063528;28;20035;-77
2023/03/15 00:53:45;;;;;;;7.73;1.73;;;2.90;1.00;;;;;;5056208;28;20036;-77
2023/03/15 00:56:14;;;;;;;3.63;1.40;;;2.90;1.00;;;;;;5060822;28;20040;-77
2023/03/15 00:58:41;;;;;;;6.07;1.10;;;2.80;1.00;;;;;;5053561;28;20048;-77
2023/03/15 01:01:20;;;;;;;4.47;1.75;;;2.80;1.00;;;;;;5049242;28;20044;-77
2023/03/15 01:03:49;;;;;;;5.28;1.40;;;2.80;1.00;;;;;;5050897;28;20036;-77
2023/03/15 01:06:19;;;;;;;3.10;1.13;;;2.80;1.00;;;;;;5052269;28;20059;-77
2023/03/15 01:08:46;;;;;;;4.90;1.45;;;2.80;1.00;;;;;;5079123;28;20055;-77
2023/03/15 01:11:18;;;;;;;8.18;1.40;;;2.80;1.00;;;;;;5060356;28;20043;-77
2023/03/15 01:13:44;;;;;;;5.70;1.95;;;2.80;1.00;;;;;;5073135;28;20044;-77
2023/03/15 01:16:12;;;;;;;3.53;1.02;;;2.70;1.00;;;;;;5060912;28;20036;-77
2023/03/15 01:18:39;;;;;;;6.57;1.23;;;2.60;1.00;;;;;;5076819;28;20040;-77
2023/03/15 01:21:06;;;;;;;3.75;1.33;;;2.60;1.00;;;;;;5072193;28;20028;-79
2023/03/15 01:23:33;;;;;;;7.20;1.33;;;2.60;1.00;;;;;;5067338;28;20028;-78
2023/03/15 01:26:00;;;;;;;6.40;2.05;;;2.60;1.00;;;;;;5061881;28;20040;-77
2023/03/15 01:28:27;;;;;;;5.25;1.30;;;2.50;1.00;;;;;;5061861;28;20028;-77
2023/03/15 01:30:54;;;;;;;6.80;1.70;;;2.50;1.00;;;;;;5066094;28;20037;-76
2023/03/15 01:33:21;;;;;;;7.35;2.00;;;2.50;1.00;;;;;;5061376;28;20063;-77
2023/03/15 01:35:48;;;;;;;4.28;1.52;;;2.50;1.00;;;;;;5063469;28;20048;-77
2023/03/15 01:38:14;;;;;;;6.20;1.48;;;2.50;1.00;;;;;;5070390;28;20049;-77
2023/03/15 01:40:44;;;;;;;4.63;1.52;;;2.60;1.00;;;;;;5065336;28;20043;-77
2023/03/15 01:43:17;;;;;;;6.38;1.33;;;2.50;1.00;;;;;;5053310;28;20041;-77
2023/03/15 01:45:58;;;;;;;3.88;1.35;;;2.40;1.00;;;;;;5073851;28;20405;-77
2023/03/15 01:48:33;;;;;;;3.33;1.48;;;2.30;1.00;;;;;;5061420;28;20293;-76
2023/03/15 01:51:04;;;;;;;9.52;2.30;;;2.30;1.00;;;;;;5060292;28;20040;-75
2023/03/15 01:53:31;;;;;;;5.38;1.60;;;2.30;1.00;;;;;;5056840;28;20397;-73
2023/03/15 01:55:59;;;;;;;5.70;1.83;;;2.20;1.00;;;;;;5061755;28;20046;-77
2023/03/15 01:58:34;;;;;;;7.10;2.00;;;2.20;1.00;;;;;;5058584;28;20048;-76
2023/03/15 02:01:01;;;;;;;5.82;2.92;;;2.20;1.00;;;;;;5064076;28;20041;-77
2023/03/15 02:03:35;;;;;;;4.50;1.77;;;2.20;1.00;;;;;;5065024;28;20513;-77
2023/03/15 02:06:07;;;;;;;10.05;2.10;;;2.20;1.00;;;;;;5053683;28;20067;-77
2023/03/15 02:08:49;;;;;;;4.47;1.90;;;2.10;1.00;;;;;;5056765;28;20048;-77
2023/03/15 02:11:20;;;;;;;5.38;1.67;;;2.10;1.00;;;;;;5053103;28;20048;-77
2023/03/15 02:13:48;;;;;;;9.02;2.80;;;2.10;1.00;;;;;;5057351;28;20068;-77
2023/03/15 02:16:17;;;;;;;7.68;2.20;;;2.00;1.00;;;;;;5050781;28;20056;-79
2023/03/15 02:18:50;;;;;;;5.40;1.67;;;1.90;1.00;;;;;;5068758;28;20482;-76
2023/03/15 02:21:51;;;;;;;4.22;1.50;;;1.80;1.00;;;;;;5057042;28;20036;-78
2023/03/15 02:24:33;;;;;;;4.70;2.20;;;1.70;1.00;;;;;;5058183;28;20040;-76
2023/03/15 02:27:00;;;;;;;10.40;2.38;;;1.60;1.00;;;;;;5054360;28;20383;-76
2023/03/15 02:29:27;;;;;;;11.10;3.47;;;1.60;1.80;;;;;;5063242;28;20033;-76
2023/03/15 02:31:54;;;;;;;7.32;2.10;;;1.60;7.90;;;;;;5063469;28;20048;-76
2023/03/15 02:34:24;;;;;;;4.25;2.15;;;1.60;8.50;;;;;;5064408;28;20473;-76
2023/03/15 02:36:51;;;;;;;4.15;1.73;;;1.50;10.90;;;;;;5065315;28;20036;-76
2023/03/15 02:39:19;;;;;;;3.92;2.03;;;1.60;11.20;;;;;;5065361;28;20386;-76
2023/03/15 02:41:54;;;;;;;6.75;1.70;;;1.50;11.20;;;;;;5062629;28;20025;-76
2023/03/15 02:44:31;;;;;;;6.03;1.98;;;1.40;11.90;;;;;;5062293;28;20053;-76
2023/03/15 02:47:03;;;;;;;3.72;1.60;;;1.20;12.70;;;;;;5059437;28;20469;-75
2023/03/15 02:49:35;;;;;;;7.18;1.80;;;1.20;17.00;;;;;;5056678;28;20041;-75
2023/03/15 02:52:02;;;;;;;8.70;1.73;;;1.20;25.70;;;;;;5057541;28;20478;-75
2023/03/15 02:54:28;;;;;;;5.50;2.30;;;1.20;25.30;;;;;;5070278;28;20051;-76
2023/03/15 02:56:54;;;;;;;12.15;2.10;;;1.20;22.80;;;;;;5061693;28;20044;-74
2023/03/15 02:59:20;;;;;;;4.15;1.00;;;1.30;16.30;;;;;;5053836;28;20041;-75
2023/03/15 03:01:47;;;;;;;6.78;1.60;;;1.40;11.80;;;;;;5063980;28;20052;-75
2023/03/15 03:04:13;;;;;;;5.55;1.83;;;1.50;2.50;;;;;;5063183;28;20041;-74
2023/03/15 03:06:42;;;;;;;5.68;1.90;;;1.50;1.00;;;;;;5063117;28;20491;-77
2023/03/15 03:09:10;;;;;;;3.08;1.85;;;1.40;1.00;;;;;;5073444;28;20056;-79
2023/03/15 03:11:37;;;;;;;4.78;1.70;;;1.40;1.00;;;;;;5061513;28;20037;-78
2023/03/15 03:14:04;;;;;;;6.30;1.45;;;1.40;4.10;;;;;;5057444;28;20509;-77
2023/03/15 03:16:31;;;;;;;4.43;1.67;;;1.40;7.90;;;;;;5054123;28;20041;-78
2023/03/15 03:18:57;;;;;;;4.05;1.55;;;1.40;7.50;;;;;;5056794;28;20116;-77
2023/03/15 03:21:24;;;;;;;3.33;0.93;;;1.30;8.00;;;;;;5047688;28;20049;-77
2023/03/15 03:23:50;;;;;;;4.60;1.50;;;1.30;10.70;;;;;;5059544;28;20033;-77
2023/03/15 03:26:17;;;;;;;7.55;1.45;;;1.30;8.50;;;;;;5057720;28;20044;-77
2023/03/15 03:28:47;;;;;;;4.45;1.58;;;1.30;10.60;;;;;;5058968;28;20107;-78
2023/03/15 03:31:19;;;;;;;5.03;1.52;;;1.20;10.70;;;;;;5059816;28;20041;-77
2023/03/15 03:33:46;;;;;;;5.68;1.60;;;1.20;13.20;;;;;;5063463;28;20049;-77
2023/03/15 03:36:12;;;;;;;6.82;1.40;;;1.10;13.60;;;;;;5060241;28;20048;-77
2023/03/15 03:38:44;;;;;;;5.80;1.58;;;1.10;14.70;;;;;;5076791;28;20055;-77
2023/03/15 03:41:12;;;;;;;7.72;1.90;;;1.10;16.30;;;;;;5063204;28;20497;-78
2023/03/15 03:43:39;;;;;;;6.95;1.38;;;1.10;12.80;;;;;;5054588;28;20049;-78
2023/03/15 03:46:05;;;;;;;8.05;1.55;;;1.10;8.10;;;;;;5062657;28;20433;-78
2023/03/15 03:48:35;;;;;;;8.13;1.83;;;1.00;7.40;;;;;;5060989;28;20045;-76
2023/03/15 03:51:01;;;;;;;10.52;3.70;;;1.00;9.10;;;;;;5064641;28;20037;-76
2023/03/15 03:53:27;;;;;;;11.23;3.17;;;1.00;9.10;;;;;;5063157;28;20040;-76
2023/03/15 03:55:55;;;;;;;9.75;2.90;;;0.90;12.00;;;;;;5060557;28;20049;-78
2023/03/15 03:58:22;;;;;;;7.13;2.08;;;0.90;13.40;;;;;;5077318;28;20462;-76
2023/03/15 04:00:57;;;;;;;8.93;2.20;;;1.00;14.80;;;;;;5060734;28;20040;-76
2023/03/15 04:03:26;;;;;;;5.88;2.40;;;1.10;8.70;;;;;;5069634;28;20053;-76
2023/03/15 04:05:58;;;;;;;10.60;2.28;;;1.20;5.70;;;;;;5059854;28;20052;-76
2023/03/15 04:08:26;;;;;;;5.88;1.50;;;1.20;3.10;;;;;;5058093;28;20442;-77
2023/03/15 04:10:55;;;;;;;10.00;1.95;;;1.20;1.00;;;;;;5059995;28;20509;-77
2023/03/15 04:13:24;;;;;;;5.93;2.00;;;1.20;1.00;;;;;;5048614;28;20041;-77
2023/03/15 04:15:56;;;;;;;8.10;1.98;;;1.20;1.00;;;;;;5062341;28;20808;-76
2023/03/15 04:18:23;;;;;;;4.70;1.65;;;1.20;1.00;;;;;;5060522;28;20056;-77
2023/03/15 04:20:53;;;;;;;9.90;2.83;;;1.10;1.00;;;;;;5078730;28;20045;-76
2023/03/15 04:23:21;;;;;;;11.77;3.40;;;0.90;1.00;;;;;;5062811;28;20041;-77
2023/03/15 04:26:07;;;;;;;5.68;2.83;;;0.80;4.70;;;;;;5061094;28;20044;-76
2023/03/15 04:28:54;;;;;;;7.93;3.45;;;0.70;11.40;;;;;;5058061;28;20036;-77
2023/03/15 04:31:36;;;;;;;5.40;1.70;;;0.70;16.00;;;;;;5058986;28;20043;-76
2023/03/15 04:34:15;;;;;;;9.00;1.60;;;0.80;14.00;;;;;;5059129;28;20029;-77
2023/03/15 04:37:11;;;;;;;4.07;2.00;;;0.70;13.70;;;;;;5002789;28;20142;-76
2023/03/15 04:39:56;;;;;;;7.07;2.20;;;0.70;19.70;;;;;;5063701;28;20366;-76
2023/03/15 04:42:45;;;;;;;6.90;1.83;;;0.60;18.00;;;;;;5024003;28;20067;-77
2023/03/15 04:45:25;;;;;;;3.55;1.55;;;0.50;22.10;;;;;;5058121;28;20058;-76
2023/03/15 04:48:19;;;;;;;7.32;1.83;;;0.50;26.20;;;;;;5061386;28;20052;-76
2023/03/15 04:50:56;;;;;;;8.15;2.55;;;0.50;29.00;;;;;;5056944;28;20048;-75
2023/03/15 04:53:52;;;;;;;5.63;1.48;;;0.50;32.70;;;;;;5049505;28;20496;-75
2023/03/15 04:56:50;;;;;;;7.90;1.60;;;0.50;33.70;;;;;;5056816;28;20482;-76
2023/03/15 04:59:33;;;;;;;5.72;1.65;;;0.50;35.20;;;;;;5058891;28;20044;-76
2023/03/15 05:02:12;;;;;;;6.70;1.92;;;0.40;38.00;;;;;;5064011;28;20040;-78
2023/03/15 05:04:59;;;;;;;5.93;2.22;;;0.40;48.40;;;;;;5056274;28;20394;-76
2023/03/15 05:07:54;;;;;;;5.75;2.10;;;0.40;51.60;;;;;;5039370;28;20049;-75
2023/03/15 05:10:20;;;;;;;7.55;2.15;;;0.60;56.90;;;;;;5063562;28;20045;-81
2023/03/15 05:13:07;;;;;;;7.18;2.20;;;0.60;54.40;;;;;;5061497;28;20040;-76
2023/03/15 05:15:53;;;;;;;8.18;2.38;;;0.70;48.70;;;;;;5054489;28;20048;-76
2023/03/15 05:18:49;;;;;;;5.82;2.30;;;0.80;45.10;;;;;;5074747;28;20045;-76
2023/03/15 05:21:33;;;;;;;11.65;2.60;;;0.80;44.10;;;;;;5056835;28;20036;-77
2023/03/15 05:24:09;;;;;;;7.65;2.17;;;0.80;40.80;;;;;;5050804;28;20047;-75
2023/03/15 05:26:54;;;;;;;6.00;2.97;;;0.90;38.90;;;;;;5051617;28;20497;-73
2023/03/15 05:29:44;;;;;;;5.93;2.45;;;0.90;38.40;;;;;;5052606;28;20052;-74
2023/03/15 05:32:25;;;;;;;6.38;2.72;;;0.90;38.20;;;;;;5060755;28;20036;-74
2023/03/15 05:35:11;;;;;;;7.75;2.90;;;1.00;36.80;;;;;;5065710;28;20045;-74
2023/03/15 05:37:56;;;;;;;7.05;2.85;;;1.00;36.70;;;;;;5065083;28;20041;-74
2023/03/15 05:40:48;;;;;;;11.70;2.65;;;1.00;34.40;;;;;;5057532;28;20047;-73
2023/03/15 05:43:29;;;;;;;5.55;2.88;;;1.10;31.60;;;;;;5057086;28;20040;-73
2023/03/15 05:46:13;;;;;;;7.97;2.97;;;1.10;26.40;;;;;;5061182;28;20056;-73
2023/03/15 05:49:08;;;;;;;11.98;4.88;;;1.20;24.40;;;;;;5006112;28;20450;-74
2023/03/15 05:51:46;;;;;;;8.95;2.58;;;1.20;25.50;;;;;;5073869;28;20378;-73
2023/03/15 05:54:41;;;;;;;7.88;3.60;;;1.20;22.00;;;;;;5031321;28;20506;-74
2023/03/15 05:57:26;;;;;;;5.97;2.83;;;1.30;20.50;;;;;;5058218;28;20045;-74
2023/03/15 06:00:01;;;;;;;7.88;3.40;;;1.30;16.60;;;;;;5059220;28;20037;-75
2023/03/15 06:02:43;;;;;;;7.18;3.60;;;1.30;13.90;;;;;;5059257;28;20050;-74
2023/03/15 06:05:31;;;;;;;9.45;3.55;;;1.30;12.40;;;;;;5057951;28;20049;-74
2023/03/15 06:08:05;;;;;;;6.75;3.63;;;1.40;12.60;;;;;;5056672;28;20394;-74
2023/03/15 06:10:34;;;;;;;9.90;5.55;;;1.40;9.30;;;;;;5063592;28;20041;-74
2023/03/15 06:13:05;;;;;;;;;;;1.50;9.90;;;;;;5081439;28;20072;-74
2023/03/15 06:15:32;;;;;;;8.85;2.90;;;1.50;10.40;;;;;;5067130;28;19912;-74
2023/03/15 06:17:59;;;;;;;8.48;3.20;;;1.50;11.20;;;;;;5056766;28;20040;-74
2023/03/15 06:20:26;;;;;;;8.88;3.30;;;1.50;10.40;;;;;;5079617;28;20041;-74
2023/03/15 06:22:59;;;;;;;9.25;3.85;;;1.50;6.70;;;;;;5062461;28;20046;-75
2023/03/15 06:25:33;;;;;;;7.90;3.33;;;1.60;4.00;;;;;;5053392;28;20056;-74
2023/03/15 06:28:00;;;;;;;7.72;3.30;;;1.60;1.00;;;;;;5061567;28;20053;-75
2023/03/15 06:30:27;;;;;;;6.38;3.65;;;1.60;1.00;;;;;;5079253;28;20041;-75
2023/03/15 06:32:58;;;;;;;13.45;4.13;;;1.60;1.00;;;;;;5062768;28;20052;-75
2023/03/15 06:35:24;;;;;;;8.27;3.75;;;1.70;1.00;;;;;;5063731;28;20358;-75
2023/03/15 06:37:51;;;;;;;6.35;3.63;;;1.70;1.00;;;;;;5074825;28;20048;-75
2023/03/15 06:40:18;;;;;;;13.07;4.38;;;1.70;1.00;;;;;;5055935;28;20056;-75
2023/03/15 06:42:46;;;;;;;7.93;3.40;;;1.80;1.00;;;;;;5067966;28;20037;-75
2023/03/15 06:45:15;;;;;;;12.15;3.22;;;1.90;1.00;;;;;;5061775;28;20052;-74
2023/03/15 06:47:45;;;;;;;9.70;3.05;;;1.90;1.00;;;;;;5062530;28;20036;-75
2023/03/15 06:50:12;;;;;;;7.82;2.80;;;2.00;1.00;;;;;;5079579;28;20068;-75
2023/03/15 06:52:39;;;;;;;8.63;3.35;;;2.00;1.00;;;;;;5064229;28;20033;-75
2023/03/15 06:55:06;;;;;;;7.25;2.92;;;2.10;1.00;;;;;;5080256;28;20037;-75
2023/03/15 06:57:32;;;;;;;8.45;4.45;;;2.10;1.00;;;;;;5078844;28;20047;-75
2023/03/15 06:59:59;;;;;;;10.00;3.25;;;2.10;1.00;;;;;;5061750;28;20036;-75
2023/03/15 07:02:25;;;;;;;8.20;3.88;;;2.20;1.00;;;;;;5064025;28;20041;-75
2023/03/15 07:04:51;;;;;;;15.00;3.83;;;2.20;1.00;;;;;;5065492;28;20028;-75
2023/03/15 07:07:17;;;;;;;7.05;2.65;;;2.30;1.00;;;;;;5062727;28;20055;-76
2023/03/15 07:09:44;;;;;;;7.10;3.17;;;2.30;1.00;;;;;;5065022;28;20032;-74
2023/03/15 07:12:10;;;;;;;8.50;3.38;;;2.30;1.00;;;;;;5068259;28;20040;-74
2023/03/15 07:14:36;;;;;;;7.97;3.92;;;2.40;1.00;;;;;;5061203;28;20033;-74
2023/03/15 07:17:05;;;;;;;5.55;3.22;;;2.50;1.00;;;;;;5054816;28;20466;-73
2023/03/15 07:19:31;;;;;;;10.57;4.47;;;2.60;1.00;;;;;;5064523;28;20025;-74
2023/03/15 07:21:57;;;;;;;9.98;3.58;;;2.70;1.00;;;;;;5063813;28;20033;-73
2023/03/15 07:24:24;;;;;;;10.55;4.10;;;2.70;1.00;;;;;;5064375;28;20036;-74
2023/03/15 07:26:55;;;;;;;8.30;3.63;;;2.80;1.00;;;;;;5060348;28;20033;-74
2023/03/15 07:29:25;;;;;;;10.48;4.03;;;3.00;1.00;;;;;;5061978;28;20033;-74
2023/03/15 07:31:53;;;;;;;11.00;4.63;;;3.00;1.00;;;;;;5061807;28;20036;-74
2023/03/15 07:34:20;;;;;;;9.73;3.70;;;3.10;1.00;;;;;;5061649;28;20037;-75
2023/03/15 07:36:46;;;;;;;9.60;3.30;;;3.00;1.00;;;;;;5061973;28;20500;-74
2023/03/15 07:39:15;;;;;;;9.30;3.78;;;3.00;1.00;;;;;;5061581;28;20048;-74
2023/03/15 07:41:41;;;;;;;12.82;5.70;;;3.10;1.00;;;;;;5062057;28;20041;-74
2023/03/15 07:44:19;;;;;;;6.22;3.15;;;3.00;1.00;;;;;;5061395;28;20049;-76
2023/03/15 07:46:45;;;;;;;12.18;4.03;;;3.10;1.00;;;;;;5056214;28;20041;-74
2023/03/15 07:49:12;;;;;;;7.65;3.53;;;3.20;1.00;;;;;;5057333;28;20478;-74
2023/03/15 07:51:38;;;;;;;6.75;3.30;;;3.30;1.00;;;;;;5059077;28;20378;-73
2023/03/15 07:54:04;;;;;;;16.38;3.70;;;3.30;1.00;;;;;;5063386;28;20386;-73
2023/03/15 07:56:30;;;;;;;8.30;3.17;;;3.30;1.00;;;;;;5059504;28;20041;-73
2023/03/15 07:58:56;;;;;;;8.48;3.63;;;3.40;1.00;;;;;;5058098;28;20052;-73
2023/03/15 08:01:22;;;;;;;9.02;3.55;;;3.40;1.00;;;;;;5062789;28;20043;-73
2023/03/15 08:03:48;;;;;;;6.90;2.42;;;3.50;1.00;;;;;;5065632;28;20036;-73
2023/03/15 08:06:15;;;;;;;6.15;3.03;;;3.50;1.00;;;;;;5062769;28;20036;-74
2023/03/15 08:08:41;;;;;;;5.47;2.28;;;3.60;1.00;;;;;;5063515;28;20408;-73
2023/03/15 08:11:07;;;;;;;6.90;2.85;;;3.70;1.00;;;;;;5062093;28;20039;-73
2023/03/15 08:13:33;;;;;;;13.93;3.40;;;3.80;1.00;;;;;;5057038;28;20050;-73
2023/03/15 08:15:59;;;;;;;8.35;2.65;;;3.90;1.00;;;;;;5058139;28;20047;-73
2023/03/15 08:18:27;;;;;;;11.30;3.78;;;4.00;1.00;;;;;;5054277;28;20025;-74
2023/03/15 08:20:54;;;;;;;7.10;3.00;;;4.00;1.00;;;;;;5056565;28;20028;-74
2023/03/15 08:23:21;;;;;;;9.98;2.40;;;4.00;1.00;;;;;;5059453;28;20492;-73
2023/03/15 08:25:47;;;;;;;7.07;3.15;;;4.00;1.00;;;;;;5054759;28;20433;-74
2023/03/15 08:28:13;;;;;;;13.93;4.28;;;4.10;1.00;;;;;;5078413;28;20067;-74
2023/03/15 08:30:40;;;;;;;4.18;2.50;;;4.10;1.00;;;;;;5056560;28;20025;-74
2023/03/15 08:33:07;;;;;;;4.40;2.70;;;4.20;1.00;;;;;;5056070;28;20041;-74
2023/03/15 08:35:33;;;;;;;5.82;2.42;;;4.30;1.00;;;;;;5056459;28;20041;-75
2023/03/15 08:38:01;;;;;;;6.82;2.72;;;4.40;1.00;;;;;;5053205;28;20040;-73
2023/03/15 08:40:28;;;;;;;5.05;2.20;;;4.30;1.00;;;;;;5056461;28;20037;-73
2023/03/15 08:42:55;;;;;;;8.02;2.50;;;4.10;1.00;;;;;;5054256;28;20076;-74
2023/03/15 08:45:23;;;;;;;8.00;3.03;;;4.00;1.00;;;;;;5058552;28;20494;-73
2023/03/15 08:47:54;;;;;;;8.00;3.58;;;3.90;1.00;;;;;;5058955;28;20036;-73
2023/03/15 08:50:20;;;;;;;;;;;3.70;1.00;;;;;;5059117;28;20033;-74
2023/03/15 08:52:46;;;;;;;7.18;2.42;;;3.70;1.00;;;;;;5056104;28;20427;-73
2023/03/15 08:55:13;;;;;;;6.45;3.15;;;3.80;1.00;;;;;;5055775;28;20044;-74
2023/03/15 08:57:39;;;;;;;8.00;3.05;;;3.80;1.00;;;;;;5059266;28;20061;-74
2023/03/15 09:00:08;;;;;;;7.18;1.92;;;3.80;1.00;;;;;;5063286;28;20032;-73
2023/03/15 09:02:35;;;;;;;8.02;4.20;;;3.80;1.00;;;;;;5059788;28;20462;-73
2023/03/15 09:05:01;;;;;;;9.77;3.20;;;3.80;1.00;;;;;;5060973;28;20640;-74
2023/03/15 09:07:27;;;;;;;9.90;3.30;;;3.70;1.00;;;;;;5053827;28;20040;-73
2023/03/15 09:09:53;;;;;;;8.15;3.50;;;3.80;1.00;;;;;;5058055;28;20033;-74
2023/03/15 09:12:20;;;;;;;10.93;3.08;;;3.80;1.00;;;;;;5071970;28;20037;-74
2023/03/15 09:14:46;;;;;;;6.10;2.72;;;3.70;1.00;;;;;;5055071;28;20029;-74
2023/03/15 09:17:13;;;;;;;6.53;3.58;;;3.80;1.00;;;;;;5046406;28;20045;-74
2023/03/15 09:19:39;;;;;;;6.85;2.97;;;3.80;1.00;;;;;;5052225;28;20035;-74
2023/03/15 09:22:06;;;;;;;12.75;3.67;;;3.60;1.00;;;;;;5056620;28;20029;-74
2023/03/15 09:24:32;;;;;;;7.15;2.83;;;3.60;1.00;;;;;;5053825;28;20421;-74
2023/03/15 09:27:01;;;;;;;6.18;2.35;;;3.50;1.00;;;;;;5058413;28;20041;-74
2023/03/15 09:29:27;;;;;;;9.85;2.70;;;3.40;1.00;;;;;;5051389;28;20041;-74
2023/03/15 09:31:53;;;;;;;5.53;2.70;;;3.40;1.00;;;;;;5053406;28;20029;-74
2023/03/15 09:34:20;;;;;;;7.75;3.20;;;3.30;1.00;;;;;;5057139;28;20045;-73
2023/03/15 09:36:51;;;;;;;7.88;2.38;;;3.20;1.00;;;;;;5061834;28;20358;-74
2023/03/15 09:39:20;;;;;;;6.72;2.70;;;3.10;1.00;;;;;;5052884;28;20052;-74
2023/03/15 09:41:51;;;;;;;5.40;2.50;;;3.20;1.00;;;;;;5058805;28;20044;-74
2023/03/15 09:44:38;;;;;;;10.05;3.10;;;3.20;1.00;;;;;;5062904;28;20051;-74
2023/03/15 09:47:07;;;;;;;5.55;3.15;;;3.30;1.00;;;;;;5057768;28;20045;-74
2023/03/15 09:49:46;;;;;;;6.40;2.58;;;3.20;1.00;;;;;;5054739;28;20045;-74
2023/03/15 09:52:26;;;;;;;5.65;2.50;;;3.40;3.50;;;;;;5060813;28;20025;-74
2023/03/15 09:55:14;;;;;;;4.93;2.60;;;3.50;4.70;;;;;;5060238;28;20029;-74
2023/03/15 09:57:52;;;;;;;7.45;2.90;;;3.60;1.00;;;;;;5058304;28;20481;-74
2023/03/15 10:00:37;;;;;;;15.10;3.80;;;3.70;1.00;;;;;;5058282;28;20028;-74
2023/03/15 10:03:06;;;;;;;5.55;3.15;;;3.60;1.00;;;;;;5064271;28;20033;-74
2023/03/15 10:05:43;;;;;;;8.77;4.03;;;3.60;1.00;;;;;;5061266;28;20021;-74
2023/03/15 10:08:17;;;;;;;6.60;4.03;;;3.70;1.00;;;;;;5055803;28;20044;-74
2023/03/15 10:11:05;;;;;;;8.18;4.18;;;3.70;1.00;;;;;;5065297;28;20457;-74
2023/03/15 10:13:59;;;;;;;8.23;3.45;;;3.70;1.00;;;;;;5057332;28;20036;-74
2023/03/15 10:16:38;;;;;;;9.00;3.63;;;3.70;1.00;;;;;;5068847;28;20056;-74
2023/03/15 10:19:13;;;;;;;8.40;4.00;;;3.90;1.00;;;;;;5060714;28;20029;-74
2023/03/15 10:21:49;;;;;;;8.90;3.95;;;4.00;1.00;;;;;;5062204;28;20047;-74
2023/03/15 10:24:43;;;;;;;5.72;3.20;;;4.20;1.00;;;;;;5066469;28;20029;-74
2023/03/15 10:27:18;;;;;;;12.05;4.18;;;4.30;1.00;;;;;;5062937;28;20033;-74
2023/03/15 10:29:47;;;;;;;5.57;3.60;;;4.50;1.00;;;;;;5062312;28;20036;-74
2023/03/15 10:32:17;;;;;;;5.05;3.70;;;4.30;1.00;;;;;;5061069;28;20032;-75
2023/03/15 10:34:52;;;;;;;8.75;5.13;;;4.30;1.00;;;;;;5056957;28;20404;-74
2023/03/15 10:37:19;;;;;;;9.93;4.82;;;4.40;1.00;;;;;;5060053;28;20067;-75
2023/03/15 10:39:48;;;;;;;7.10;5.03;;;4.50;1.00;;;;;;5055667;28;20037;-75
2023/03/15 10:42:33;;;;;;;8.68;5.05;;;4.50;1.00;;;;;;5060371;28;20343;-75
2023/03/15 10:45:11;;;;;;;6.63;4.32;;;4.50;1.00;;;;;;5058790;28;20037;-75
2023/03/15 10:47:42;;;;;;;8.65;5.22;;;4.70;1.00;;;;;;5055517;28;20040;-75
2023/03/15 10:50:15;;;;;;;9.82;4.82;;;4.80;1.00;;;;;;5060266;28;20335;-76
2023/03/15 10:52:48;;;;;;;8.68;6.38;;;4.90;1.00;;;;;;5055920;28;20033;-76
2023/03/15 10:55:17;;;;;;;14.73;9.35;;;5.00;1.00;;;;;;5061167;28;20028;-76
2023/03/15 10:58:01;;;;;;;13.90;6.10;;;5.20;1.00;;;;;;5055093;28;20033;-74
2023/03/15 11:00:31;;;;;;;13.50;6.55;;;4.70;1.00;;;;;;5053505;28;20107;-74
2023/03/15 11:03:06;;;;;;;12.98;7.60;;;4.00;1.00;;;;;;5056605;28;20037;-74
2023/03/15 11:05:44;;;;;;;9.15;6.60;;;3.70;1.00;;;;;;5057765;28;20488;-74
2023/03/15 11:08:19;;;;;;;12.32;7.53;;;3.60;7.80;;;;;;5055006;28;20432;-75
2023/03/15 11:10:54;;;;;;;15.63;7.38;;;3.80;11.10;;;;;;5057574;28;20024;-74
2023/03/15 11:13:24;;;;;;;11.68;4.78;;;3.70;4.50;;;;;;5058302;28;20036;-72
2023/03/15 11:16:02;;;;;;;7.40;3.95;;;3.90;10.50;;;;;;5060068;28;20048;-73
2023/03/15 11:18:31;;;;;;;6.80;3.55;;;3.90;1.00;;;;;;5055232;28;20037;-76
2023/03/15 11:20:58;;;;;;;14.98;6.45;;;4.00;1.00;;;;;;5057623;28;20049;-73
2023/03/15 11:23:28;;;;;;;10.05;5.75;;;4.10;1.00;;;;;;5057699;28;20025;-72
2023/03/15 11:25:55;;;;;;;10.63;5.28;;;4.10;1.00;;;;;;5057364;28;20033;-73
2023/03/15 11:28:26;;;;;;;8.30;4.35;;;4.20;1.00;;;;;;5059885;28;20465;-73
2023/03/15 11:30:54;;;;;;;12.13;6.60;;;4.40;1.00;;;;;;5054687;28;20041;-73
2023/03/15 11:33:39;;;;;;;9.43;4.82;;;4.60;1.00;;;;;;5058089;28;20040;-72
2023/03/15 11:36:12;;;;;;;7.93;4.45;;;4.90;1.00;;;;;;5056984;28;20028;-74
2023/03/15 11:38:44;;;;;;;9.75;4.65;;;5.00;1.00;;;;;;5054983;28;20356;-72
2023/03/15 11:41:35;;;;;;;7.22;4.00;;;5.00;1.00;;;;;;5057897;28;20033;-73
2023/03/15 11:44:28;;;;;;;10.93;4.82;;;4.90;1.00;;;;;;5063755;28;20379;-73
2023/03/15 11:47:07;;;;;;;13.27;5.45;;;5.00;1.00;;;;;;5060391;28;20048;-73
2023/03/15 11:49:43;;;;;;;15.35;5.45;;;5.00;1.00;;;;;;5057043;28;20044;-73
2023/03/15 11:52:09;;;;;;;9.50;4.78;;;5.10;1.00;;;;;;5064578;28;20460;-72
2023/03/15 11:54:36;;;;;;;14.13;5.72;;;5.00;1.00;;;;;;5061769;28;20478;-74
2023/03/15 11:57:26;;;;;;;9.23;5.80;;;5.00;1.00;;;;;;5062367;28;20470;-73
2023/03/15 11:59:52;;;;;;;8.83;5.30;;;5.20;1.00;;;;;;5059328;28;20024;-73
2023/03/15 12:02:18;;;;;;;9.65;5.10;;;5.30;1.00;;;;;;5062462;28;20032;-74
2023/03/15 12:04:46;;;;;;;6.43;4.00;;;5.50;1.00;;;;;;5062951;28;20468;-73
2023/03/15 12:07:18;;;;;;;6.82;4.63;;;5.70;1.00;;;;;;5063122;28;20037;-73
2023/03/15 12:09:50;;;;;;;5.90;4.40;;;5.80;1.00;;;;;;5060876;28;20061;-74
2023/03/15 12:12:25;;;;;;;6.07;4.35;;;5.90;1.00;;;;;;5062366;28;20040;-73
2023/03/15 12:15:05;;;;;;;5.30;3.83;;;5.90;1.00;;;;;;5058083;28;20061;-74
2023/03/15 12:17:36;;;;;;;5.90;3.65;;;5.90;1.00;;;;;;5053812;28;20036;-75
2023/03/15 12:20:08;;;;;;;;;;;6.10;1.00;;;;;;5057542;28;20045;-74
2023/03/15 12:22:36;;;;;;;5.03;3.58;;;6.00;1.00;;;;;;5056864;28;19928;-75
2023/03/15 12:25:11;;;;;;;5.95;3.45;;;6.10;1.00;;;;;;5063910;28;20037;-74
2023/03/15 12:27:44;;;;;;;5.43;3.58;;;6.20;1.00;;;;;;5057421;28;20036;-74
2023/03/15 12:30:20;;;;;;;6.43;4.20;;;6.30;1.00;;;;;;5058420;28;20044;-73
2023/03/15 12:32:52;;;;;;;7.03;4.97;;;6.30;1.00;;;;;;5060255;28;20037;-75
2023/03/15 12:35:21;;;;;;;6.03;3.88;;;6.50;1.00;;;;;;5059738;28;20036;-75
2023/03/15 12:37:55;;;;;;;7.05;4.47;;;6.60;1.00;;;;;;5058561;28;20056;-74
2023/03/15 12:40:27;;;;;;;4.95;3.90;;;6.70;1.00;;;;;;5056599;28;20033;-74
2023/03/15 12:42:53;;;;;;;4.97;3.38;;;6.80;1.00;;;;;;5060112;28;20052;-73
2023/03/15 12:45:19;;;;;;;5.93;3.25;;;6.80;1.00;;;;;;5061808;28;20036;-74
2023/03/15 12:47:48;;;;;;;5.38;4.30;;;7.00;1.00;;;;;;5058821;28;20044;-73
2023/03/15 12:50:49;;;;;;;4.72;3.33;;;7.00;1.00;;;;;;5060543;28;20040;-73
2023/03/15 12:53:37;;;;;;;7.63;4.20;;;7.00;1.00;;;;;;5055353;28;20033;-74
2023/03/15 12:56:29;;;;;;;3.72;3.05;;;6.90;99.90;;;;;;5064467;28;20068;-73
2023/03/15 12:59:01;;;;;;;;;;;6.90;99.90;;;;;;5051729;28;20029;-73
2023/03/15 13:01:29;;;;;;;5.55;3.58;;;7.00;1.00;;;;;;5057298;28;19908;-73
2023/03/15 13:03:57;;;;;;;3.85;2.70;;;7.20;1.00;;;;;;5056241;28;20040;-73
2023/03/15 13:06:41;;;;;;;7.03;3.47;;;7.30;99.90;;;;;;5056203;28;20052;-73
2023/03/15 13:09:27;;;;;;;7.32;3.65;;;7.50;99.90;;;;;;5054617;28;20059;-73
2023/03/15 13:12:32;;;;;;;6.93;4.53;;;7.90;99.90;;;;;;5057719;28;20224;-73
2023/03/15 13:15:06;;;;;;;4.80;3.45;;;8.30;99.90;;;;;;5055339;28;20048;-73
2023/03/15 13:17:35;;;;;;;7.20;3.72;;;8.20;99.90;;;;;;5053516;28;20041;-73
2023/03/15 13:20:16;;;;;;;4.68;2.88;;;8.10;99.90;;;;;;5053067;28;20032;-72
2023/03/15 13:22:56;;;;;;;6.55;3.28;;;8.20;99.90;;;;;;5055034;28;20437;-73
2023/03/15 13:25:49;;;;;;;4.35;3.90;;;8.10;99.90;;;;;;5053353;28;20039;-72
2023/03/15 13:28:36;;;;;;;2.35;1.90;;;7.90;99.90;;;;;;5030945;28;20386;-74
2023/03/15 13:31:23;;;;;;;2.85;1.65;;;8.10;99.90;;;;;;5058794;28;20025;-73
2023/03/15 13:33:58;;;;;;;3.88;1.77;;;8.20;99.90;;;;;;5052597;28;20036;-72